createdAt,value
2024-02-13T00:00:13.171Z,35.03
2024-02-13T00:01:18.216Z,35.02
2024-02-13T00:02:21.654Z,35.01
2024-02-13T00:03:25.081Z,35.01
2024-02-13T00:04:28.447Z,35.01
2024-02-13T00:05:31.904Z,35.02
2024-02-13T00:06:35.272Z,35.01
2024-02-13T00:07:40.998Z,35.01
2024-02-13T00:08:46.731Z,35
2024-02-13T00:09:50.185Z,34.98
2024-02-13T00:10:53.456Z,34.98
2024-02-13T00:11:58.261Z,34.99
2024-02-13T00:13:01.585Z,34.99
2024-02-13T00:14:04.857Z,34.99
2024-02-13T00:15:08.184Z,35
2024-02-13T00:16:11.603Z,35.03
2024-02-13T00:17:15.225Z,35.02
2024-02-13T00:18:18.673Z,35.05
2024-02-13T00:19:22.471Z,35.04
2024-02-13T00:20:25.934Z,35.05
2024-02-13T00:21:29.418Z,35.05
2024-02-13T00:22:32.774Z,35.06
2024-02-13T00:23:36.101Z,35.05
2024-02-13T00:24:39.479Z,35.05
2024-02-13T00:25:42.688Z,35.05
2024-02-13T00:26:48.278Z,35.05
2024-02-13T00:27:51.491Z,35.05
2024-02-13T00:28:56.258Z,35.03
2024-02-13T00:30:00.974Z,35.02
2024-02-13T00:31:04.219Z,35.01
2024-02-13T00:32:07.705Z,35.04
2024-02-13T00:33:11.181Z,35.03
2024-02-13T00:34:14.636Z,35.02
2024-02-13T00:35:18.048Z,35.04
2024-02-13T00:36:21.431Z,35.05
2024-02-13T00:37:26.246Z,35.05
2024-02-13T00:38:29.510Z,35.04
2024-02-13T00:39:32.898Z,35.04
2024-02-13T00:40:36.165Z,35.05
2024-02-13T00:41:41.032Z,35.06
2024-02-13T00:42:44.203Z,35.06
2024-02-13T00:43:47.455Z,35.05
2024-02-13T00:44:51.506Z,35.08
2024-02-13T00:45:55.330Z,35.05
2024-02-13T00:46:58.727Z,35.06
2024-02-13T00:48:02.263Z,35.06
2024-02-13T00:49:05.850Z,35.07
2024-02-13T00:50:09.428Z,35.07
2024-02-13T00:51:12.882Z,35.06
2024-02-13T00:52:16.183Z,35.09
2024-02-13T00:53:21.740Z,35.08
2024-02-13T00:54:25.078Z,35.03
2024-02-13T00:55:28.437Z,35.04
2024-02-13T00:56:31.904Z,35.05
2024-02-13T00:57:35.338Z,35.07
2024-02-13T00:58:38.805Z,35.06
2024-02-13T00:59:42.132Z,35.07
2024-02-13T01:00:45.595Z,35.07
2024-02-13T01:01:48.813Z,35.08
2024-02-13T01:02:52.238Z,35.08
2024-02-13T01:03:55.850Z,35.08
2024-02-13T01:04:59.235Z,35.08
2024-02-13T01:06:02.588Z,35.07
2024-02-13T01:07:06.188Z,35.07
2024-02-13T01:08:09.647Z,35.08
2024-02-13T01:09:13.026Z,35.09
2024-02-13T01:10:16.310Z,35.08
2024-02-13T01:11:19.909Z,35.08
2024-02-13T01:12:23.263Z,35.08
2024-02-13T01:13:26.539Z,35.1
2024-02-13T01:14:29.970Z,35.13
2024-02-13T01:15:34.768Z,35.13
2024-02-13T01:16:39.498Z,35.12
2024-02-13T01:17:44.387Z,35.11
2024-02-13T01:18:47.897Z,35.13
2024-02-13T01:19:51.250Z,35.12
2024-02-13T01:20:54.813Z,35.13
2024-02-13T01:21:58.269Z,35.17
2024-02-13T01:23:01.627Z,35.15
2024-02-13T01:24:04.931Z,35.18
2024-02-13T01:25:08.272Z,35.18
2024-02-13T01:26:13.132Z,35.19
2024-02-13T01:27:18.655Z,35.18
2024-02-13T01:28:21.948Z,35.16
2024-02-13T01:29:27.079Z,35.15
2024-02-13T01:30:30.405Z,35.14
2024-02-13T01:31:33.669Z,35.15
2024-02-13T01:32:37.067Z,35.14
2024-02-13T01:33:40.443Z,35.15
2024-02-13T01:34:44.149Z,35.15
2024-02-13T01:35:47.780Z,35.16
2024-02-13T01:36:51.183Z,35.17
2024-02-13T01:37:54.488Z,35.19
2024-02-13T01:38:57.861Z,35.17
2024-02-13T01:40:01.346Z,35.17
2024-02-13T01:41:04.853Z,35.15
2024-02-13T01:42:08.090Z,35.16
2024-02-13T01:43:13.368Z,35.15
2024-02-13T01:44:16.612Z,35.15
2024-02-13T01:45:21.589Z,35.16
2024-02-13T01:46:24.817Z,35.16
2024-02-13T01:47:29.682Z,35.16
2024-02-13T01:48:33.278Z,35.11
2024-02-13T01:49:36.932Z,35.12
2024-02-13T01:50:40.499Z,35.12
2024-02-13T01:51:43.844Z,35.14
2024-02-13T01:52:47.134Z,35.13
2024-02-13T01:53:50.466Z,35.15
2024-02-13T01:54:53.797Z,35.15
2024-02-13T01:55:57.024Z,35.16
2024-02-13T01:57:00.441Z,35.18
2024-02-13T01:58:03.897Z,35.17
2024-02-13T01:59:08.733Z,35.16
2024-02-13T02:00:12.006Z,35.15
2024-02-13T02:01:15.287Z,35.15
2024-02-13T02:02:18.946Z,35.14
2024-02-13T02:03:23.301Z,35.14
2024-02-13T02:04:26.821Z,35.12
2024-02-13T02:05:30.545Z,35.14
2024-02-13T02:06:35.498Z,35.14
2024-02-13T02:07:38.747Z,35.12
2024-02-13T02:08:42.158Z,35.11
2024-02-13T02:09:45.483Z,35.14
2024-02-13T02:10:48.742Z,35.14
2024-02-13T02:11:52.324Z,35.13
2024-02-13T02:12:55.936Z,35.13
2024-02-13T02:13:59.228Z,35.15
2024-02-13T02:15:02.496Z,35.13
2024-02-13T02:16:05.784Z,35.13
2024-02-13T02:17:09.134Z,35.15
2024-02-13T02:18:12.826Z,35.13
2024-02-13T02:19:18.073Z,35.12
2024-02-13T02:20:21.633Z,35.12
2024-02-13T02:21:25.039Z,35.12
2024-02-13T02:22:28.440Z,35.13
2024-02-13T02:23:31.852Z,35.14
2024-02-13T02:24:35.259Z,35.15
2024-02-13T02:25:40.046Z,35.16
2024-02-13T02:26:43.226Z,35.15
2024-02-13T02:27:48.537Z,35.13
2024-02-13T02:28:51.843Z,35.13
2024-02-13T02:29:55.146Z,35.12
2024-02-13T02:31:00.012Z,35.11
2024-02-13T02:32:03.226Z,35.1
2024-02-13T02:33:06.880Z,35.11
2024-02-13T02:34:10.659Z,35.11
2024-02-13T02:35:14.095Z,35.14
2024-02-13T02:36:17.512Z,35.13
2024-02-13T02:37:20.790Z,35.13
2024-02-13T02:38:24.147Z,35.12
2024-02-13T02:39:27.578Z,35.13
2024-02-13T02:40:30.898Z,35.13
2024-02-13T02:41:35.832Z,35.15
2024-02-13T02:42:40.667Z,35.12
2024-02-13T02:43:43.892Z,35.1
2024-02-13T02:44:47.407Z,35.11
2024-02-13T02:45:50.692Z,35.12
2024-02-13T02:46:53.957Z,35.1
2024-02-13T02:47:58.909Z,35.11
2024-02-13T02:49:02.715Z,35.1
2024-02-13T02:50:06.213Z,35.08
2024-02-13T02:51:11.490Z,35.1
2024-02-13T02:52:14.704Z,35.09
2024-02-13T02:53:20.774Z,35.1
2024-02-13T02:54:24.098Z,35.07
2024-02-13T02:55:27.457Z,35.09
2024-02-13T02:56:30.782Z,35.08
2024-02-13T02:57:36.207Z,35.09
2024-02-13T02:58:41.332Z,35.1
2024-02-13T02:59:44.595Z,35.07
2024-02-13T03:00:48.015Z,35.07
2024-02-13T03:01:51.815Z,35.09
2024-02-13T03:02:56.136Z,35.1
2024-02-13T03:04:01.274Z,35.08
2024-02-13T03:05:04.756Z,35.04
2024-02-13T03:06:08.405Z,35.05
2024-02-13T03:07:11.928Z,35.07
2024-02-13T03:08:16.738Z,35.08
2024-02-13T03:09:21.789Z,35.06
2024-02-13T03:10:25.025Z,35.06
2024-02-13T03:11:28.342Z,35.06
2024-02-13T03:12:31.832Z,35.08
2024-02-13T03:13:35.153Z,35.08
2024-02-13T03:14:38.525Z,35.09
2024-02-13T03:15:41.813Z,35.08
2024-02-13T03:16:47.054Z,35.08
2024-02-13T03:17:51.965Z,35.06
2024-02-13T03:18:55.566Z,35.06
2024-02-13T03:19:58.975Z,35.04
2024-02-13T03:21:02.195Z,35.06
2024-02-13T03:22:05.661Z,35.06
2024-02-13T03:23:09.108Z,35.07
2024-02-13T03:24:12.720Z,35.07
2024-02-13T03:25:15.964Z,35.07
2024-02-13T03:26:20.740Z,35.09
2024-02-13T03:27:24.288Z,35.1
2024-02-13T03:28:29.184Z,35.09
2024-02-13T03:29:32.514Z,35.07
2024-02-13T03:30:36.050Z,35.03
2024-02-13T03:31:39.255Z,35.07
2024-02-13T03:32:42.792Z,35.08
2024-02-13T03:33:46.692Z,35.09
2024-02-13T03:34:51.535Z,35.07
2024-02-13T03:35:54.695Z,35.08
2024-02-13T03:36:57.983Z,35.05
2024-02-13T03:38:02.778Z,35.07
2024-02-13T03:39:06.016Z,35.06
2024-02-13T03:40:10.835Z,35.06
2024-02-13T03:41:14.194Z,35.04
2024-02-13T03:42:17.949Z,35.06
2024-02-13T03:43:21.335Z,35.07
2024-02-13T03:44:24.607Z,35.05
2024-02-13T03:45:29.495Z,35.07
2024-02-13T03:46:32.628Z,35.06
2024-02-13T03:47:36.031Z,35.05
2024-02-13T03:48:39.713Z,35.05
2024-02-13T03:49:43.393Z,35.05
2024-02-13T03:50:46.722Z,35.03
2024-02-13T03:51:49.795Z,35.02
2024-02-13T03:52:53.056Z,35.05
2024-02-13T03:53:56.422Z,35.05
2024-02-13T03:54:59.728Z,35.07
2024-02-13T03:56:03.076Z,35.05
2024-02-13T03:57:06.668Z,35.07
2024-02-13T03:58:09.939Z,35.06
2024-02-13T03:59:14.780Z,35.06
2024-02-13T04:00:18.233Z,35.04
2024-02-13T04:01:21.407Z,35.05
2024-02-13T04:02:24.796Z,35.05
2024-02-13T04:03:28.620Z,35.06
2024-02-13T04:04:33.695Z,35.03
2024-02-13T04:05:37.054Z,35.02
2024-02-13T04:06:40.433Z,35.04
2024-02-13T04:07:45.367Z,35.04
2024-02-13T04:08:50.210Z,35.02
2024-02-13T04:09:53.448Z,35.01
2024-02-13T04:10:56.691Z,35.02
2024-02-13T04:12:00.007Z,35.01
2024-02-13T04:13:03.181Z,35.01
2024-02-13T04:14:06.557Z,35.02
2024-02-13T04:15:09.786Z,35.03
2024-02-13T04:16:13.061Z,35.04
2024-02-13T04:17:16.475Z,35.03
2024-02-13T04:18:20.190Z,35.04
2024-02-13T04:19:23.892Z,35.04
2024-02-13T04:20:27.526Z,35.05
2024-02-13T04:21:30.973Z,35.03
2024-02-13T04:22:36.255Z,35.03
2024-02-13T04:23:39.381Z,35.01
2024-02-13T04:24:42.802Z,35.01
2024-02-13T04:25:46.106Z,35.01
2024-02-13T04:26:49.388Z,35.03
2024-02-13T04:27:52.817Z,35.03
2024-02-13T04:28:56.101Z,35.04
2024-02-13T04:29:59.464Z,35.05
2024-02-13T04:31:04.233Z,35.04
2024-02-13T04:32:07.457Z,35.02
2024-02-13T04:33:11.267Z,35.02
2024-02-13T04:34:15.122Z,35.03
2024-02-13T04:35:18.670Z,35.03
2024-02-13T04:36:22.185Z,35.02
2024-02-13T04:37:25.442Z,35.03
2024-02-13T04:38:28.759Z,35.03
2024-02-13T04:39:32.130Z,35.03
2024-02-13T04:40:35.408Z,35.03
2024-02-13T04:41:38.666Z,35.03
2024-02-13T04:42:41.961Z,35.03
2024-02-13T04:43:45.281Z,35.03
2024-02-13T04:44:48.694Z,35.03
2024-02-13T04:45:52.157Z,35.03
2024-02-13T04:46:55.510Z,35.03
2024-02-13T04:47:59.095Z,35.01
2024-02-13T04:49:02.871Z,35.02
2024-02-13T04:50:06.313Z,35.04
2024-02-13T04:51:09.647Z,35.02
2024-02-13T04:52:12.997Z,35.02
2024-02-13T04:53:16.312Z,35.02
2024-02-13T04:54:19.723Z,35.03
2024-02-13T04:55:23.042Z,35.03
2024-02-13T04:56:26.191Z,35.01
2024-02-13T04:57:29.625Z,35
2024-02-13T04:58:33.024Z,35.01
2024-02-13T04:59:36.468Z,35.01
2024-02-13T05:00:39.782Z,35.02
2024-02-13T05:01:44.742Z,35.01
2024-02-13T05:02:49.567Z,34.99
2024-02-13T05:03:52.841Z,34.99
2024-02-13T05:04:56.288Z,34.96
2024-02-13T05:05:59.667Z,34.98
2024-02-13T05:07:03.189Z,34.97
2024-02-13T05:08:06.618Z,34.96
2024-02-13T05:09:11.464Z,34.98
2024-02-13T05:10:14.638Z,34.96
2024-02-13T05:11:17.938Z,34.98
2024-02-13T05:12:21.202Z,35
2024-02-13T05:13:24.485Z,35
2024-02-13T05:14:27.905Z,34.98
2024-02-13T05:15:31.211Z,35
2024-02-13T05:16:34.511Z,35
2024-02-13T05:17:37.994Z,34.99
2024-02-13T05:18:41.410Z,35
2024-02-13T05:19:44.711Z,35.01
2024-02-13T05:20:48.019Z,35.01
2024-02-13T05:21:51.663Z,34.99
2024-02-13T05:22:55.450Z,34.97
2024-02-13T05:23:58.967Z,34.99
2024-02-13T05:25:02.545Z,34.98
2024-02-13T05:26:05.833Z,34.99
2024-02-13T05:27:09.279Z,34.97
2024-02-13T05:28:14.156Z,35.01
2024-02-13T05:29:17.466Z,35
2024-02-13T05:30:20.827Z,34.99
2024-02-13T05:31:24.234Z,34.98
2024-02-13T05:32:27.680Z,35
2024-02-13T05:33:31.325Z,34.99
2024-02-13T05:34:35.012Z,35.01
2024-02-13T05:35:38.224Z,34.97
2024-02-13T05:36:41.559Z,35
2024-02-13T05:37:44.828Z,34.98
2024-02-13T05:38:48.168Z,34.99
2024-02-13T05:39:53.065Z,35.01
2024-02-13T05:40:56.267Z,34.98
2024-02-13T05:41:59.612Z,34.98
2024-02-13T05:43:02.990Z,34.99
2024-02-13T05:44:06.329Z,34.98
2024-02-13T05:45:09.593Z,35
2024-02-13T05:46:12.914Z,35.01
2024-02-13T05:47:16.315Z,35.01
2024-02-13T05:48:20.099Z,35
2024-02-13T05:49:23.821Z,34.98
2024-02-13T05:50:27.472Z,34.98
2024-02-13T05:51:30.804Z,34.97
2024-02-13T05:52:34.020Z,34.98
2024-02-13T05:53:37.482Z,35
2024-02-13T05:54:44.117Z,34.98
2024-02-13T05:55:48.948Z,34.95
2024-02-13T05:56:52.129Z,34.92
2024-02-13T05:57:55.506Z,34.92
2024-02-13T05:58:59.544Z,34.92
2024-02-13T06:00:03.368Z,34.95
2024-02-13T06:01:07.342Z,34.93
2024-02-13T06:02:11.106Z,34.95
2024-02-13T06:03:14.595Z,34.93
2024-02-13T06:04:17.950Z,34.94
2024-02-13T06:05:23.507Z,34.93
2024-02-13T06:06:27.426Z,34.92
2024-02-13T06:07:31.068Z,34.92
2024-02-13T06:08:34.454Z,34.92
2024-02-13T06:09:37.711Z,34.9
2024-02-13T06:10:40.996Z,34.92
2024-02-13T06:11:44.513Z,34.92
2024-02-13T06:12:47.677Z,34.92
2024-02-13T06:13:51.057Z,34.94
2024-02-13T06:14:54.549Z,34.94
2024-02-13T06:15:57.977Z,34.94
2024-02-13T06:17:01.273Z,34.92
2024-02-13T06:18:04.972Z,34.93
2024-02-13T06:19:08.855Z,34.93
2024-02-13T06:20:12.456Z,34.91
2024-02-13T06:21:15.843Z,34.9
2024-02-13T06:22:19.083Z,34.93
2024-02-13T06:23:22.649Z,34.91
2024-02-13T06:24:26.115Z,34.93
2024-02-13T06:25:29.356Z,34.93
2024-02-13T06:26:32.603Z,34.92
2024-02-13T06:27:37.527Z,34.92
2024-02-13T06:28:40.706Z,34.9
2024-02-13T06:29:44.040Z,34.89
2024-02-13T06:30:47.274Z,34.9
2024-02-13T06:31:50.689Z,34.9
2024-02-13T06:32:54.180Z,34.9
2024-02-13T06:33:57.986Z,34.89
2024-02-13T06:35:01.741Z,34.89
2024-02-13T06:36:05.185Z,34.89
2024-02-13T06:37:08.602Z,34.88
2024-02-13T06:38:11.984Z,34.86
2024-02-13T06:39:15.323Z,34.86
2024-02-13T06:40:20.131Z,34.86
2024-02-13T06:41:23.429Z,34.87
2024-02-13T06:42:26.838Z,34.85
2024-02-13T06:43:30.205Z,34.84
2024-02-13T06:44:33.484Z,34.86
2024-02-13T06:45:36.914Z,34.86
2024-02-13T06:46:40.233Z,34.84
2024-02-13T06:47:43.573Z,34.85
2024-02-13T06:48:47.142Z,34.83
2024-02-13T06:49:50.947Z,34.83
2024-02-13T06:50:54.563Z,34.82
2024-02-13T06:51:59.992Z,34.82
2024-02-13T06:53:03.228Z,34.78
2024-02-13T06:54:06.572Z,34.8
2024-02-13T06:55:10.090Z,34.79
2024-02-13T06:56:13.381Z,34.79
2024-02-13T06:57:16.753Z,34.8
2024-02-13T06:58:20.024Z,34.79
2024-02-13T06:59:25.115Z,34.81
2024-02-13T07:00:28.556Z,34.78
2024-02-13T07:01:31.885Z,34.79
2024-02-13T07:02:35.242Z,34.77
2024-02-13T07:03:38.706Z,34.78
2024-02-13T07:04:42.113Z,34.78
2024-02-13T07:05:45.502Z,34.77
2024-02-13T07:06:58.486Z,34.78
2024-02-13T07:08:06.813Z,34.64
2024-02-13T07:09:10.682Z,34.6
2024-02-13T07:10:14.798Z,34.6
2024-02-13T07:11:19.332Z,34.6
2024-02-13T07:12:22.702Z,34.64
2024-02-13T07:13:26.032Z,34.65
2024-02-13T07:14:29.988Z,34.66
2024-02-13T07:15:33.849Z,34.67
2024-02-13T07:16:41.546Z,34.67
2024-02-13T07:18:53.207Z,34.57
2024-02-13T07:19:56.720Z,34.58
2024-02-13T07:21:07.695Z,34.6
2024-02-13T07:22:12.063Z,34.54
2024-02-13T07:23:15.488Z,34.53
2024-02-13T07:24:18.885Z,34.55
2024-02-13T07:25:22.217Z,34.57
2024-02-13T07:26:25.501Z,34.58
2024-02-13T07:27:28.821Z,34.6
2024-02-13T07:28:32.089Z,34.61
2024-02-13T07:29:35.547Z,34.61
2024-02-13T07:30:38.729Z,34.6
2024-02-13T07:31:42.044Z,34.63
2024-02-13T07:32:45.364Z,34.64
2024-02-13T07:33:49.147Z,34.63
2024-02-13T07:34:52.787Z,34.63
2024-02-13T07:35:58.523Z,34.61
2024-02-13T07:37:01.876Z,34.59
2024-02-13T07:38:05.129Z,34.59
2024-02-13T07:39:08.438Z,34.58
2024-02-13T07:40:11.864Z,34.59
2024-02-13T07:41:15.228Z,34.57
2024-02-13T07:42:18.664Z,34.55
2024-02-13T07:43:21.986Z,34.55
2024-02-13T07:44:26.964Z,34.52
2024-02-13T07:45:30.307Z,34.5
2024-02-13T07:46:33.659Z,34.47
2024-02-13T07:47:37.108Z,34.46
2024-02-13T07:48:40.585Z,34.42
2024-02-13T07:49:45.760Z,34.41
2024-02-13T07:50:50.513Z,34.37
2024-02-13T07:51:53.755Z,34.32
2024-02-13T07:52:56.952Z,34.3
2024-02-13T07:54:00.422Z,34.27
2024-02-13T07:55:03.961Z,34.25
2024-02-13T07:56:07.264Z,34.22
2024-02-13T07:57:10.534Z,34.21
2024-02-13T07:58:13.804Z,34.17
2024-02-13T07:59:17.210Z,34.14
2024-02-13T08:00:20.611Z,34.13
2024-02-13T08:01:24.008Z,34.11
2024-02-13T08:02:28.829Z,34.08
2024-02-13T08:03:33.637Z,34.04
2024-02-13T08:04:36.908Z,33.98
2024-02-13T08:05:40.474Z,33.95
2024-02-13T08:06:45.759Z,33.91
2024-02-13T08:07:48.863Z,33.85
2024-02-13T08:08:52.364Z,33.8
2024-02-13T08:09:55.841Z,33.81
2024-02-13T08:10:59.185Z,33.8
2024-02-13T08:12:02.490Z,33.78
2024-02-13T08:13:07.419Z,33.75
2024-02-13T08:14:10.957Z,33.75
2024-02-13T08:15:16.121Z,33.75
2024-02-13T08:16:19.406Z,33.72
2024-02-13T08:17:22.817Z,33.69
2024-02-13T08:18:26.535Z,33.67
2024-02-13T08:19:30.306Z,33.63
2024-02-13T08:20:34.053Z,33.63
2024-02-13T08:21:37.342Z,33.61
2024-02-13T08:22:40.584Z,33.62
2024-02-13T08:23:44.119Z,33.63
2024-02-13T08:24:47.491Z,33.59
2024-02-13T08:25:50.698Z,33.56
2024-02-13T08:26:54.243Z,33.59
2024-02-13T08:27:57.815Z,33.59
2024-02-13T08:29:01.137Z,33.6
2024-02-13T08:30:04.738Z,33.59
2024-02-13T08:31:08.243Z,33.58
2024-02-13T08:32:11.617Z,33.6
2024-02-13T08:33:17.000Z,33.62
2024-02-13T08:34:21.203Z,33.6
2024-02-13T08:35:26.669Z,33.58
2024-02-13T08:36:30.406Z,33.58
2024-02-13T08:37:33.745Z,33.59
2024-02-13T08:38:36.980Z,33.59
2024-02-13T08:39:40.347Z,33.6
2024-02-13T08:40:43.655Z,33.62
2024-02-13T08:41:46.950Z,33.6
2024-02-13T08:42:50.381Z,33.61
2024-02-13T08:43:53.780Z,33.61
2024-02-13T08:44:57.533Z,33.62
2024-02-13T08:46:00.888Z,33.61
2024-02-13T08:47:05.604Z,33.59
2024-02-13T08:48:09.373Z,33.55
2024-02-13T08:49:14.423Z,33.52
2024-02-13T08:50:19.377Z,33.48
2024-02-13T08:51:23.072Z,33.48
2024-02-13T08:52:26.455Z,33.48
2024-02-13T08:53:31.373Z,33.5
2024-02-13T08:54:34.810Z,33.51
2024-02-13T08:55:38.055Z,33.52
2024-02-13T08:56:41.714Z,33.5
2024-02-13T08:57:45.105Z,33.51
2024-02-13T08:58:48.283Z,33.48
2024-02-13T08:59:55.926Z,33.49
2024-02-13T09:01:00.567Z,33.44
2024-02-13T09:02:03.966Z,33.41
2024-02-13T09:03:07.314Z,33.42
2024-02-13T09:04:12.139Z,33.4
2024-02-13T09:05:17.756Z,33.39
2024-02-13T09:06:22.053Z,33.36
2024-02-13T09:07:25.598Z,33.35
2024-02-13T09:08:28.865Z,33.35
2024-02-13T09:09:34.553Z,33.38
2024-02-13T09:10:39.919Z,33.4
2024-02-13T09:11:43.332Z,33.36
2024-02-13T09:12:47.281Z,33.37
2024-02-13T09:13:50.602Z,33.37
2024-02-13T09:14:54.085Z,33.39
2024-02-13T09:15:57.535Z,33.39
2024-02-13T09:17:02.335Z,33.39
2024-02-13T09:18:05.780Z,33.41
2024-02-13T09:19:09.566Z,33.39
2024-02-13T09:20:14.741Z,33.39
2024-02-13T09:21:18.462Z,33.38
2024-02-13T09:22:21.747Z,33.38
2024-02-13T09:23:25.146Z,33.38
2024-02-13T09:24:28.625Z,33.39
2024-02-13T09:25:31.989Z,33.4
2024-02-13T09:26:35.292Z,33.39
2024-02-13T09:27:38.509Z,33.39
2024-02-13T09:28:41.702Z,33.41
2024-02-13T09:29:46.468Z,33.42
2024-02-13T09:30:49.718Z,33.38
2024-02-13T09:31:52.976Z,33.4
2024-02-13T09:32:59.228Z,33.39
2024-02-13T09:34:04.411Z,33.38
2024-02-13T09:35:07.875Z,33.35
2024-02-13T09:36:11.190Z,33.34
2024-02-13T09:37:14.577Z,33.36
2024-02-13T09:38:17.973Z,33.36
2024-02-13T09:39:21.339Z,33.37
2024-02-13T09:40:24.663Z,33.38
2024-02-13T09:41:28.002Z,33.37
2024-02-13T09:42:31.490Z,33.36
2024-02-13T09:43:34.905Z,33.38
2024-02-13T09:44:38.240Z,33.38
2024-02-13T09:45:41.488Z,33.38
2024-02-13T09:46:44.805Z,33.38
2024-02-13T09:47:48.422Z,33.38
2024-02-13T09:48:52.363Z,33.38
2024-02-13T09:49:56.174Z,33.35
2024-02-13T09:50:59.978Z,33.38
2024-02-13T09:52:03.417Z,33.39
2024-02-13T09:53:06.754Z,33.4
2024-02-13T09:54:10.247Z,33.38
2024-02-13T09:55:15.227Z,33.39
2024-02-13T09:56:19.128Z,33.38
2024-02-13T09:57:22.929Z,33.38
2024-02-13T09:58:26.330Z,33.39
2024-02-13T09:59:29.603Z,33.42
2024-02-13T10:00:33.188Z,33.42
2024-02-13T10:01:36.453Z,33.42
2024-02-13T10:02:39.969Z,33.42
2024-02-13T10:03:44.096Z,33.42
2024-02-13T10:04:47.442Z,33.43
2024-02-13T10:05:53.800Z,33.42
2024-02-13T10:06:58.129Z,33.4
2024-02-13T10:08:01.595Z,33.38
2024-02-13T10:09:05.118Z,33.4
2024-02-13T10:10:08.389Z,33.41
2024-02-13T10:11:11.711Z,33.42
2024-02-13T10:12:14.975Z,33.43
2024-02-13T10:13:18.227Z,33.44
2024-02-13T10:14:21.638Z,33.46
2024-02-13T10:15:24.976Z,33.46
2024-02-13T10:16:28.352Z,33.47
2024-02-13T10:17:31.965Z,33.46
2024-02-13T10:18:35.920Z,33.45
2024-02-13T10:19:39.291Z,33.47
2024-02-13T10:20:42.682Z,33.48
2024-02-13T10:21:45.940Z,33.47
2024-02-13T10:22:49.474Z,33.49
2024-02-13T10:23:53.549Z,33.47
2024-02-13T10:24:57.063Z,33.46
2024-02-13T10:26:00.341Z,33.5
2024-02-13T10:27:04.000Z,33.51
2024-02-13T10:28:07.570Z,33.49
2024-02-13T10:29:10.993Z,33.49
2024-02-13T10:30:14.324Z,33.51
2024-02-13T10:31:19.074Z,33.5
2024-02-13T10:32:22.416Z,33.49
2024-02-13T10:33:26.223Z,33.49
2024-02-13T10:34:29.727Z,33.54
2024-02-13T10:35:33.452Z,33.55
2024-02-13T10:36:36.929Z,33.54
2024-02-13T10:37:40.261Z,33.54
2024-02-13T10:38:43.767Z,33.56
2024-02-13T10:39:47.453Z,33.58
2024-02-13T10:40:50.775Z,33.58
2024-02-13T10:41:54.213Z,33.59
2024-02-13T10:42:57.380Z,33.6
2024-02-13T10:44:00.683Z,33.64
2024-02-13T10:45:04.160Z,33.65
2024-02-13T10:46:07.711Z,33.64
2024-02-13T10:47:11.031Z,33.63
2024-02-13T10:48:14.557Z,33.66
2024-02-13T10:49:18.184Z,33.66
2024-02-13T10:50:21.722Z,33.68
2024-02-13T10:51:25.168Z,33.67
2024-02-13T10:52:28.556Z,33.69
2024-02-13T10:53:31.818Z,33.69
2024-02-13T10:54:35.209Z,33.7
2024-02-13T10:55:43.546Z,33.69
2024-02-13T10:56:47.433Z,33.67
2024-02-13T10:57:51.278Z,33.67
2024-02-13T10:58:54.563Z,33.67
2024-02-13T10:59:57.960Z,33.72
2024-02-13T11:01:01.652Z,33.72
2024-02-13T11:02:07.152Z,33.74
2024-02-13T11:03:10.801Z,33.74
2024-02-13T11:04:14.316Z,33.74
2024-02-13T11:05:17.956Z,33.74
2024-02-13T11:06:23.328Z,33.76
2024-02-13T11:07:26.844Z,33.73
2024-02-13T11:08:30.237Z,33.74
2024-02-13T11:09:33.652Z,33.74
2024-02-13T11:10:36.883Z,33.76
2024-02-13T11:11:41.718Z,33.75
2024-02-13T11:12:44.898Z,33.73
2024-02-13T11:13:48.103Z,33.75
2024-02-13T11:14:51.391Z,33.76
2024-02-13T11:15:54.742Z,33.77
2024-02-13T11:16:58.031Z,33.78
2024-02-13T11:18:01.527Z,33.8
2024-02-13T11:19:05.279Z,33.77
2024-02-13T11:20:08.849Z,33.75
2024-02-13T11:21:12.343Z,33.78
2024-02-13T11:22:15.791Z,33.78
2024-02-13T11:23:20.078Z,33.77
2024-02-13T11:24:23.433Z,33.77
2024-02-13T11:25:26.994Z,33.78
2024-02-13T11:26:30.775Z,33.78
2024-02-13T11:27:34.381Z,33.78
2024-02-13T11:28:37.793Z,33.78
2024-02-13T11:29:41.111Z,33.78
2024-02-13T11:30:44.313Z,33.78
2024-02-13T11:31:47.537Z,33.81
2024-02-13T11:32:51.319Z,33.82
2024-02-13T11:33:55.245Z,33.81
2024-02-13T11:34:58.941Z,33.81
2024-02-13T11:36:02.616Z,33.81
2024-02-13T11:37:09.048Z,33.85
2024-02-13T11:38:12.358Z,33.82
2024-02-13T11:39:15.629Z,33.81
2024-02-13T11:40:18.830Z,33.81
2024-02-13T11:41:22.139Z,33.83
2024-02-13T11:42:27.971Z,33.8
2024-02-13T11:43:33.897Z,33.75
2024-02-13T11:44:37.257Z,33.74
2024-02-13T11:45:42.629Z,33.76
2024-02-13T11:46:45.966Z,33.76
2024-02-13T11:47:51.190Z,33.76
2024-02-13T11:48:54.940Z,33.76
2024-02-13T11:49:58.653Z,33.74
2024-02-13T11:51:02.456Z,33.75
2024-02-13T11:52:05.850Z,33.74
2024-02-13T11:53:09.154Z,33.76
2024-02-13T11:54:12.526Z,33.76
2024-02-13T11:55:15.937Z,33.77
2024-02-13T11:56:19.331Z,33.8
2024-02-13T11:57:22.720Z,33.81
2024-02-13T11:58:26.057Z,33.78
2024-02-13T11:59:29.395Z,33.81
2024-02-13T12:00:32.873Z,33.81
2024-02-13T12:01:36.223Z,33.83
2024-02-13T12:02:41.381Z,33.84
2024-02-13T12:03:44.745Z,33.85
2024-02-13T12:04:48.152Z,33.87
2024-02-13T12:05:51.678Z,33.89
2024-02-13T12:06:55.311Z,33.9
2024-02-13T12:07:58.644Z,33.85
2024-02-13T12:09:02.029Z,33.85
2024-02-13T12:10:05.682Z,33.81
2024-02-13T12:11:08.990Z,33.81
2024-02-13T12:12:12.389Z,33.83
2024-02-13T12:13:15.700Z,33.87
2024-02-13T12:14:19.015Z,33.88
2024-02-13T12:15:22.390Z,33.89
2024-02-13T12:16:25.737Z,33.9
2024-02-13T12:17:29.104Z,33.93
2024-02-13T12:18:33.007Z,33.94
2024-02-13T12:19:38.679Z,33.94
2024-02-13T12:20:42.020Z,33.92
2024-02-13T12:21:45.486Z,33.89
2024-02-13T12:22:48.795Z,33.88
2024-02-13T12:23:52.392Z,33.9
2024-02-13T12:24:55.823Z,33.92
2024-02-13T12:25:59.562Z,33.91
2024-02-13T12:27:03.093Z,33.92
2024-02-13T12:28:07.290Z,33.93
2024-02-13T12:29:10.659Z,33.96
2024-02-13T12:30:13.931Z,33.97
2024-02-13T12:31:17.285Z,33.97
2024-02-13T12:32:20.689Z,33.96
2024-02-13T12:33:24.586Z,33.95
2024-02-13T12:34:28.696Z,33.95
2024-02-13T12:35:32.669Z,33.95
2024-02-13T12:36:36.477Z,33.95
2024-02-13T12:37:39.839Z,33.92
2024-02-13T12:38:44.609Z,33.94
2024-02-13T12:39:49.360Z,33.95
2024-02-13T12:40:52.637Z,33.94
2024-02-13T12:41:56.035Z,33.94
2024-02-13T12:42:59.389Z,33.96
2024-02-13T12:44:02.801Z,33.98
2024-02-13T12:45:06.312Z,33.98
2024-02-13T12:46:09.733Z,33.99
2024-02-13T12:47:12.971Z,34.01
2024-02-13T12:48:18.684Z,34
2024-02-13T12:49:22.445Z,34
2024-02-13T12:50:27.540Z,33.96
2024-02-13T12:51:31.575Z,33.96
2024-02-13T12:52:36.340Z,33.99
2024-02-13T12:53:39.547Z,33.99
2024-02-13T12:55:45.880Z,34
2024-02-13T12:56:49.070Z,34
2024-02-13T12:57:52.368Z,34.04
2024-02-13T12:58:55.710Z,34.03
2024-02-13T12:59:59.072Z,34.04
2024-02-13T13:01:02.543Z,34.04
2024-02-13T13:02:05.971Z,34.04
2024-02-13T13:03:09.293Z,34.06
2024-02-13T13:04:12.807Z,34.05
2024-02-13T13:05:16.387Z,34.07
2024-02-13T13:06:19.908Z,34.06
2024-02-13T13:07:23.509Z,34.04
2024-02-13T13:08:26.900Z,34.05
2024-02-13T13:09:30.591Z,34.04
2024-02-13T13:10:34.048Z,34.05
2024-02-13T13:11:37.386Z,34.06
2024-02-13T13:12:40.519Z,34.07
2024-02-13T13:13:43.728Z,34.09
2024-02-13T13:14:47.057Z,34.09
2024-02-13T13:15:50.384Z,34.1
2024-02-13T13:16:55.523Z,34.1
2024-02-13T13:17:59.068Z,34.08
2024-02-13T13:19:03.178Z,34.08
2024-02-13T13:20:07.446Z,34.06
2024-02-13T13:21:11.490Z,34.06
2024-02-13T13:22:15.008Z,34.06
2024-02-13T13:23:18.388Z,34.07
2024-02-13T13:24:21.909Z,34.06
2024-02-13T13:25:25.890Z,34.08
2024-02-13T13:26:29.424Z,34.1
2024-02-13T13:27:32.940Z,34.09
2024-02-13T13:28:36.137Z,34.1
2024-02-13T13:29:39.468Z,34.11
2024-02-13T13:30:42.735Z,34.12
2024-02-13T13:31:45.933Z,34.1
2024-02-13T13:32:49.346Z,34.12
2024-02-13T13:33:53.103Z,34.12
2024-02-13T13:34:56.607Z,34.13
2024-02-13T13:36:01.062Z,34.12
2024-02-13T13:37:04.861Z,34.13
2024-02-13T13:38:08.129Z,34.11
2024-02-13T13:39:11.382Z,34.13
2024-02-13T13:40:14.598Z,34.13
2024-02-13T13:41:18.104Z,34.14
2024-02-13T13:42:21.499Z,34.13
2024-02-13T13:43:24.829Z,34.14
2024-02-13T13:44:29.556Z,34.14
2024-02-13T13:45:32.869Z,34.13
2024-02-13T13:46:36.061Z,34.14